sensor_id;sensor_type;location;lat;lon;timestamp;temperature;humidity
52397;DHT22;38322;53.108;6.308;2022-09-09T05:02:38;14.60;99.90
52397;DHT22;38322;53.108;6.308;2022-09-09T05:05:04;14.60;99.90
52397;DHT22;38322;53.108;6.308;2022-09-09T05:07:30;14.70;99.90
52397;DHT22;38322;53.108;6.308;2022-09-09T05:09:57;14.70;99.90
52397;DHT22;38322;53.108;6.308;2022-09-09T05:12:23;14.70;99.90
52397;DHT22;38322;53.108;6.308;2022-09-09T05:14:51;14.60;99.90
52397;DHT22;38322;53.108;6.308;2022-09-09T05:17:17;14.70;99.90
52397;DHT22;38322;53.108;6.308;2022-09-09T05:19:43;14.70;99.90
52397;DHT22;38322;53.108;6.308;2022-09-09T05:22:10;14.70;99.90
52397;DHT22;38322;53.108;6.308;2022-09-09T05:24:37;14.70;99.90
52397;DHT22;38322;53.108;6.308;2022-09-09T05:27:04;14.70;99.90
52397;DHT22;38322;53.108;6.308;2022-09-09T05:29:32;14.70;99.90
52397;DHT22;38322;53.108;6.308;2022-09-09T05:31:59;14.70;99.90
52397;DHT22;38322;53.108;6.308;2022-09-09T05:34:25;14.70;99.90
52397;DHT22;38322;53.108;6.308;2022-09-09T05:36:51;14.70;99.90
52397;DHT22;38322;53.108;6.308;2022-09-09T05:39:18;14.70;99.90
52397;DHT22;38322;53.108;6.308;2022-09-09T05:41:44;14.80;99.90
52397;DHT22;38322;53.108;6.308;2022-09-09T05:44:10;14.70;99.90
52397;DHT22;38322;53.108;6.308;2022-09-09T05:46:35;14.70;99.90
52397;DHT22;38322;53.108;6.308;2022-09-09T05:49:02;14.70;99.90
52397;DHT22;38322;53.108;6.308;2022-09-09T05:51:29;14.70;99.90
52397;DHT22;38322;53.108;6.308;2022-09-09T05:53:56;14.80;99.90
52397;DHT22;38322;53.108;6.308;2022-09-09T05:56:27;14.80;99.90
52397;DHT22;38322;53.108;6.308;2022-09-09T05:58:54;14.80;99.90
52397;DHT22;38322;53.108;6.308;2022-09-09T06:01:24;14.80;99.90
52397;DHT22;38322;53.108;6.308;2022-09-09T06:03:52;14.80;99.90
52397;DHT22;38322;53.108;6.308;2022-09-09T06:06:20;14.80;99.90
52397;DHT22;38322;53.108;6.308;2022-09-09T06:08:49;14.80;99.90
52397;DHT22;38322;53.108;6.308;2022-09-09T06:11:19;14.80;99.90
52397;DHT22;38322;53.108;6.308;2022-09-09T06:13:46;14.80;99.90
52397;DHT22;38322;53.108;6.308;2022-09-09T06:16:16;14.90;99.90
52397;DHT22;38322;53.108;6.308;2022-09-09T06:18:42;14.90;99.90
52397;DHT22;38322;53.108;6.308;2022-09-09T06:21:18;14.90;99.90
52397;DHT22;38322;53.108;6.308;2022-09-09T06:23:45;14.90;99.90
52397;DHT22;38322;53.108;6.308;2022-09-09T06:26:14;14.90;99.90
52397;DHT22;38322;53.108;6.308;2022-09-09T06:28:41;15.00;99.90
52397;DHT22;38322;53.108;6.308;2022-09-09T06:31:10;15.00;99.90
52397;DHT22;38322;53.108;6.308;2022-09-09T06:33:39;15.10;99.90
52397;DHT22;38322;53.108;6.308;2022-09-09T06:36:10;15.10;99.90
52397;DHT22;38322;53.108;6.308;2022-09-09T06:38:37;15.10;99.90
52397;DHT22;38322;53.108;6.308;2022-09-09T06:41:03;15.10;99.90
52397;DHT22;38322;53.108;6.308;2022-09-09T06:43:31;15.20;99.90
52397;DHT22;38322;53.108;6.308;2022-09-09T06:46:01;15.10;99.90
52397;DHT22;38322;53.108;6.308;2022-09-09T06:48:28;15.20;99.90
52397;DHT22;38322;53.108;6.308;2022-09-09T06:51:05;15.10;99.90
52397;DHT22;38322;53.108;6.308;2022-09-09T06:53:33;15.20;99.90
52397;DHT22;38322;53.108;6.308;2022-09-09T06:56:02;15.10;99.90
52397;DHT22;38322;53.108;6.308;2022-09-09T06:58:28;15.10;99.90
52397;DHT22;38322;53.108;6.308;2022-09-09T07:01:03;15.20;99.90
52397;DHT22;38322;53.108;6.308;2022-09-09T07:03:29;15.20;99.90
52397;DHT22;38322;53.108;6.308;2022-09-09T07:05:55;15.20;99.90
52397;DHT22;38322;53.108;6.308;2022-09-09T07:08:22;15.20;99.90
52397;DHT22;38322;53.108;6.308;2022-09-09T07:10:47;15.30;99.90
52397;DHT22;38322;53.108;6.308;2022-09-09T07:13:13;15.30;99.90
52397;DHT22;38322;53.108;6.308;2022-09-09T07:15:41;15.30;99.90
52397;DHT22;38322;53.108;6.308;2022-09-09T07:18:07;15.40;99.90
52397;DHT22;38322;53.108;6.308;2022-09-09T07:20:35;15.40;99.90
52397;DHT22;38322;53.108;6.308;2022-09-09T07:23:01;15.40;99.90
52397;DHT22;38322;53.108;6.308;2022-09-09T07:25:27;15.40;99.90
52397;DHT22;38322;53.108;6.308;2022-09-09T07:27:55;15.50;99.90
52397;DHT22;38322;53.108;6.308;2022-09-09T07:30:21;15.50;99.90
52397;DHT22;38322;53.108;6.308;2022-09-09T07:32:47;15.50;99.90
52397;DHT22;38322;53.108;6.308;2022-09-09T07:35:13;15.60;99.90
52397;DHT22;38322;53.108;6.308;2022-09-09T07:37:39;15.60;99.90
52397;DHT22;38322;53.108;6.308;2022-09-09T07:40:05;15.60;99.90
52397;DHT22;38322;53.108;6.308;2022-09-09T07:42:31;15.60;99.90
52397;DHT22;38322;53.108;6.308;2022-09-09T07:44:57;15.70;99.90
52397;DHT22;38322;53.108;6.308;2022-09-09T07:47:23;15.80;99.90
52397;DHT22;38322;53.108;6.308;2022-09-09T07:49:50;15.90;99.90
52397;DHT22;38322;53.108;6.308;2022-09-09T07:52:16;16.00;99.90
52397;DHT22;38322;53.108;6.308;2022-09-09T07:54:42;16.10;99.90
52397;DHT22;38322;53.108;6.308;2022-09-09T07:57:08;16.20;99.90
52397;DHT22;38322;53.108;6.308;2022-09-09T07:59:34;16.30;99.90
52397;DHT22;38322;53.108;6.308;2022-09-09T08:01:59;16.30;99.90
52397;DHT22;38322;53.108;6.308;2022-09-09T08:04:26;16.30;99.90
52397;DHT22;38322;53.108;6.308;2022-09-09T08:06:56;16.40;99.90
52397;DHT22;38322;53.108;6.308;2022-09-09T08:09:24;16.50;99.90
52397;DHT22;38322;53.108;6.308;2022-09-09T08:11:52;16.50;99.90
52397;DHT22;38322;53.108;6.308;2022-09-09T08:14:18;16.60;99.90
52397;DHT22;38322;53.108;6.308;2022-09-09T08:16:47;16.60;99.90
52397;DHT22;38322;53.108;6.308;2022-09-09T08:19:13;16.70;99.90
52397;DHT22;38322;53.108;6.308;2022-09-09T08:21:41;16.80;99.90
52397;DHT22;38322;53.108;6.308;2022-09-09T08:24:09;16.80;99.90
52397;DHT22;38322;53.108;6.308;2022-09-09T08:26:39;16.90;99.90
52397;DHT22;38322;53.108;6.308;2022-09-09T08:29:07;16.90;99.90
52397;DHT22;38322;53.108;6.308;2022-09-09T08:31:36;16.90;99.90
52397;DHT22;38322;53.108;6.308;2022-09-09T08:34:03;16.90;99.90
52397;DHT22;38322;53.108;6.308;2022-09-09T08:36:33;16.80;99.90
52397;DHT22;38322;53.108;6.308;2022-09-09T08:38:59;16.80;99.90
52397;DHT22;38322;53.108;6.308;2022-09-09T08:47:00;16.90;99.90
52397;DHT22;38322;53.108;6.308;2022-09-09T08:52:17;17.10;99.90
52397;DHT22;38322;53.108;6.308;2022-09-09T08:54:46;17.20;99.90
52397;DHT22;38322;53.108;6.308;2022-09-09T08:57:21;17.40;99.90
52397;DHT22;38322;53.108;6.308;2022-09-09T08:59:50;17.40;99.90
52397;DHT22;38322;53.108;6.308;2022-09-09T09:02:22;17.40;99.90
52397;DHT22;38322;53.108;6.308;2022-09-09T09:07:22;17.50;99.90
52397;DHT22;38322;53.108;6.308;2022-09-09T09:12:21;17.50;99.90
52397;DHT22;38322;53.108;6.308;2022-09-09T09:14:48;17.50;99.90
52397;DHT22;38322;53.108;6.308;2022-09-09T09:17:23;17.60;99.90
52397;DHT22;38322;53.108;6.308;2022-09-09T09:19:50;17.70;99.90
52397;DHT22;38322;53.108;6.308;2022-09-09T09:22:18;17.60;99.90
52397;DHT22;38322;53.108;6.308;2022-09-09T09:24:56;17.70;99.90
52397;DHT22;38322;53.108;6.308;2022-09-09T09:27:34;17.90;99.90
52397;DHT22;38322;53.108;6.308;2022-09-09T09:30:06;17.90;99.90
52397;DHT22;38322;53.108;6.308;2022-09-09T09:32:39;18.00;99.90
52397;DHT22;38322;53.108;6.308;2022-09-09T09:35:12;18.00;99.90
52397;DHT22;38322;53.108;6.308;2022-09-09T09:37:41;18.10;99.90
52397;DHT22;38322;53.108;6.308;2022-09-09T09:40:12;18.20;99.90
52397;DHT22;38322;53.108;6.308;2022-09-09T09:42:48;18.20;99.90
52397;DHT22;38322;53.108;6.308;2022-09-09T09:45:20;18.30;99.90
52397;DHT22;38322;53.108;6.308;2022-09-09T09:47:58;18.30;99.90
52397;DHT22;38322;53.108;6.308;2022-09-09T09:50:24;18.30;99.90
52397;DHT22;38322;53.108;6.308;2022-09-09T09:52:55;18.40;99.90
52397;DHT22;38322;53.108;6.308;2022-09-09T09:55:23;18.50;99.90
52397;DHT22;38322;53.108;6.308;2022-09-09T09:57:50;18.50;99.90
52397;DHT22;38322;53.108;6.308;2022-09-09T10:00:18;18.50;99.90
52397;DHT22;38322;53.108;6.308;2022-09-09T10:02:45;18.50;99.90
52397;DHT22;38322;53.108;6.308;2022-09-09T10:05:25;18.50;99.90
52397;DHT22;38322;53.108;6.308;2022-09-09T10:10:45;18.60;99.90
52397;DHT22;38322;53.108;6.308;2022-09-09T10:13:26;18.60;99.90
52397;DHT22;38322;53.108;6.308;2022-09-09T10:16:13;18.60;99.90
52397;DHT22;38322;53.108;6.308;2022-09-09T10:19:04;18.60;99.90
52397;DHT22;38322;53.108;6.308;2022-09-09T10:24:30;18.90;99.90
52397;DHT22;38322;53.108;6.308;2022-09-09T10:27:07;19.00;99.90
52397;DHT22;38322;53.108;6.308;2022-09-09T10:34:58;18.90;99.90
52397;DHT22;38322;53.108;6.308;2022-09-09T10:40:34;18.90;99.90
52397;DHT22;38322;53.108;6.308;2022-09-09T10:45:44;18.80;99.90
52397;DHT22;38322;53.108;6.308;2022-09-09T10:51:05;18.90;99.90
52397;DHT22;38322;53.108;6.308;2022-09-09T10:56:21;19.00;99.90
52397;DHT22;38322;53.108;6.308;2022-09-09T10:59:00;19.10;99.90
52397;DHT22;38322;53.108;6.308;2022-09-09T11:01:36;19.00;99.90
52397;DHT22;38322;53.108;6.308;2022-09-09T11:04:15;19.10;99.90
52397;DHT22;38322;53.108;6.308;2022-09-09T11:06:47;19.10;99.90
52397;DHT22;38322;53.108;6.308;2022-09-09T11:09:17;19.00;99.90
52397;DHT22;38322;53.108;6.308;2022-09-09T11:11:54;19.00;99.90
52397;DHT22;38322;53.108;6.308;2022-09-09T11:14:28;19.00;99.90
52397;DHT22;38322;53.108;6.308;2022-09-09T11:17:01;19.10;99.90
52397;DHT22;38322;53.108;6.308;2022-09-09T11:19:32;19.10;99.90
52397;DHT22;38322;53.108;6.308;2022-09-09T11:22:02;19.10;99.90
52397;DHT22;38322;53.108;6.308;2022-09-09T11:24:38;19.10;99.90
52397;DHT22;38322;53.108;6.308;2022-09-09T11:27:15;19.10;99.90
52397;DHT22;38322;53.108;6.308;2022-09-09T11:30:00;19.10;99.90
52397;DHT22;38322;53.108;6.308;2022-09-09T11:35:27;19.00;99.90
52397;DHT22;38322;53.108;6.308;2022-09-09T11:38:27;19.00;99.90
52397;DHT22;38322;53.108;6.308;2022-09-09T11:41:01;19.00;99.90
52397;DHT22;38322;53.108;6.308;2022-09-09T11:43:31;19.10;99.90
52397;DHT22;38322;53.108;6.308;2022-09-09T11:46:02;19.10;99.90
52397;DHT22;38322;53.108;6.308;2022-09-09T11:48:29;19.10;99.90
52397;DHT22;38322;53.108;6.308;2022-09-09T11:51:03;19.10;99.90
52397;DHT22;38322;53.108;6.308;2022-09-09T11:53:31;19.10;99.90
52397;DHT22;38322;53.108;6.308;2022-09-09T11:56:10;19.10;99.90
52397;DHT22;38322;53.108;6.308;2022-09-09T11:58:40;19.20;99.90
52397;DHT22;38322;53.108;6.308;2022-09-09T12:01:14;19.10;99.90
52397;DHT22;38322;53.108;6.308;2022-09-09T12:03:43;19.10;99.90
52397;DHT22;38322;53.108;6.308;2022-09-09T12:08:49;19.10;99.90
52397;DHT22;38322;53.108;6.308;2022-09-09T12:11:30;19.00;99.90
52397;DHT22;38322;53.108;6.308;2022-09-09T12:13:58;18.90;99.90
52397;DHT22;38322;53.108;6.308;2022-09-09T12:16:33;18.90;99.90
52397;DHT22;38322;53.108;6.308;2022-09-09T12:21:48;19.00;99.90
52397;DHT22;38322;53.108;6.308;2022-09-09T12:24:22;19.10;99.90
52397;DHT22;38322;53.108;6.308;2022-09-09T12:27:02;19.20;99.90
52397;DHT22;38322;53.108;6.308;2022-09-09T12:29:41;19.40;99.90
52397;DHT22;38322;53.108;6.308;2022-09-09T12:32:15;19.50;99.90
52397;DHT22;38322;53.108;6.308;2022-09-09T12:34:55;19.70;99.90
52397;DHT22;38322;53.108;6.308;2022-09-09T12:37:40;20.00;99.90
52397;DHT22;38322;53.108;6.308;2022-09-09T12:40:28;20.10;99.90
52397;DHT22;38322;53.108;6.308;2022-09-09T12:42:54;20.30;99.90
52397;DHT22;38322;53.108;6.308;2022-09-09T12:45:24;20.20;99.90
52397;DHT22;38322;53.108;6.308;2022-09-09T12:48:09;20.20;99.90
52397;DHT22;38322;53.108;6.308;2022-09-09T12:50:45;20.10;99.90
52397;DHT22;38322;53.108;6.308;2022-09-09T12:53:23;20.30;99.90
52397;DHT22;38322;53.108;6.308;2022-09-09T12:55:58;20.40;99.90
52397;DHT22;38322;53.108;6.308;2022-09-09T12:58:25;20.60;99.90
52397;DHT22;38322;53.108;6.308;2022-09-09T13:00:55;20.70;99.90
52397;DHT22;38322;53.108;6.308;2022-09-09T13:03:22;20.70;99.90
52397;DHT22;38322;53.108;6.308;2022-09-09T13:05:49;20.60;99.90
52397;DHT22;38322;53.108;6.308;2022-09-09T13:08:16;20.40;99.90
52397;DHT22;38322;53.108;6.308;2022-09-09T13:10:54;20.30;99.90
52397;DHT22;38322;53.108;6.308;2022-09-09T13:13:28;20.20;99.90
52397;DHT22;38322;53.108;6.308;2022-09-09T13:15:57;20.00;99.90
52397;DHT22;38322;53.108;6.308;2022-09-09T13:18:28;19.90;99.90
52397;DHT22;38322;53.108;6.308;2022-09-09T13:20:55;19.80;99.90
52397;DHT22;38322;53.108;6.308;2022-09-09T13:23:28;19.80;99.90
52397;DHT22;38322;53.108;6.308;2022-09-09T13:26:03;19.80;99.90
52397;DHT22;38322;53.108;6.308;2022-09-09T13:28:31;20.20;99.90
52397;DHT22;38322;53.108;6.308;2022-09-09T13:31:00;20.50;99.90
52397;DHT22;38322;53.108;6.308;2022-09-09T13:33:34;20.50;99.90
52397;DHT22;38322;53.108;6.308;2022-09-09T13:36:04;20.50;99.90
52397;DHT22;38322;53.108;6.308;2022-09-09T13:38:35;20.40;99.90
52397;DHT22;38322;53.108;6.308;2022-09-09T13:41:05;20.40;99.90
52397;DHT22;38322;53.108;6.308;2022-09-09T13:43:44;20.30;99.90
52397;DHT22;38322;53.108;6.308;2022-09-09T13:46:30;20.20;99.90
52397;DHT22;38322;53.108;6.308;2022-09-09T13:48:58;20.20;99.90
52397;DHT22;38322;53.108;6.308;2022-09-09T13:51:32;20.10;99.90
52397;DHT22;38322;53.108;6.308;2022-09-09T13:53:59;20.00;99.90
52397;DHT22;38322;53.108;6.308;2022-09-09T13:56:26;19.90;99.90
52397;DHT22;38322;53.108;6.308;2022-09-09T13:58:52;19.70;99.90
52397;DHT22;38322;53.108;6.308;2022-09-09T14:01:17;19.70;99.90
52397;DHT22;38322;53.108;6.308;2022-09-09T14:03:43;19.50;99.90
52397;DHT22;38322;53.108;6.308;2022-09-09T14:06:10;19.50;99.90
52397;DHT22;38322;53.108;6.308;2022-09-09T14:08:36;19.30;99.90
52397;DHT22;38322;53.108;6.308;2022-09-09T14:11:03;19.20;99.90
52397;DHT22;38322;53.108;6.308;2022-09-09T14:13:30;19.20;99.90
52397;DHT22;38322;53.108;6.308;2022-09-09T14:15:55;19.20;99.90
52397;DHT22;38322;53.108;6.308;2022-09-09T14:18:22;19.20;99.90
52397;DHT22;38322;53.108;6.308;2022-09-09T14:20:48;19.30;99.90
52397;DHT22;38322;53.108;6.308;2022-09-09T14:23:15;19.10;99.90
52397;DHT22;38322;53.108;6.308;2022-09-09T14:25:43;19.00;99.90
52397;DHT22;38322;53.108;6.308;2022-09-09T14:28:10;19.10;99.90
52397;DHT22;38322;53.108;6.308;2022-09-09T14:30:43;19.10;99.90
52397;DHT22;38322;53.108;6.308;2022-09-09T14:33:11;19.30;99.90
52397;DHT22;38322;53.108;6.308;2022-09-09T14:35:38;19.70;99.90
52397;DHT22;38322;53.108;6.308;2022-09-09T14:38:04;20.00;99.90
52397;DHT22;38322;53.108;6.308;2022-09-09T14:40:30;20.30;99.90
52397;DHT22;38322;53.108;6.308;2022-09-09T14:42:56;20.60;99.90
52397;DHT22;38322;53.108;6.308;2022-09-09T14:45:23;20.60;99.90
52397;DHT22;38322;53.108;6.308;2022-09-09T14:47:51;20.60;99.90
52397;DHT22;38322;53.108;6.308;2022-09-09T14:50:18;20.50;99.90
52397;DHT22;38322;53.108;6.308;2022-09-09T14:52:44;20.40;99.90
52397;DHT22;38322;53.108;6.308;2022-09-09T14:55:10;20.20;99.90
52397;DHT22;38322;53.108;6.308;2022-09-09T14:57:36;20.00;99.90
52397;DHT22;38322;53.108;6.308;2022-09-09T15:00:03;19.80;99.90
52397;DHT22;38322;53.108;6.308;2022-09-09T15:02:30;19.60;99.90
52397;DHT22;38322;53.108;6.308;2022-09-09T15:04:57;19.50;99.90
52397;DHT22;38322;53.108;6.308;2022-09-09T15:07:24;19.50;99.90
52397;DHT22;38322;53.108;6.308;2022-09-09T15:09:50;19.60;99.90
52397;DHT22;38322;53.108;6.308;2022-09-09T15:12:16;19.60;99.90
52397;DHT22;38322;53.108;6.308;2022-09-09T15:14:45;19.60;99.90
52397;DHT22;38322;53.108;6.308;2022-09-09T15:17:11;19.50;99.90
52397;DHT22;38322;53.108;6.308;2022-09-09T15:19:37;19.50;99.90
52397;DHT22;38322;53.108;6.308;2022-09-09T15:22:04;19.40;99.90
52397;DHT22;38322;53.108;6.308;2022-09-09T15:24:32;19.40;99.90
52397;DHT22;38322;53.108;6.308;2022-09-09T15:26:58;19.30;99.90
52397;DHT22;38322;53.108;6.308;2022-09-09T15:29:24;19.20;99.90
52397;DHT22;38322;53.108;6.308;2022-09-09T15:31:50;19.20;99.90
52397;DHT22;38322;53.108;6.308;2022-09-09T15:34:16;19.10;99.90
52397;DHT22;38322;53.108;6.308;2022-09-09T15:36:45;19.00;99.90
52397;DHT22;38322;53.108;6.308;2022-09-09T15:39:15;18.90;99.90
52397;DHT22;38322;53.108;6.308;2022-09-09T15:41:44;18.90;99.90
52397;DHT22;38322;53.108;6.308;2022-09-09T15:44:11;18.70;99.90
52397;DHT22;38322;53.108;6.308;2022-09-09T15:46:40;18.60;99.90
52397;DHT22;38322;53.108;6.308;2022-09-09T15:49:10;18.60;99.90
52397;DHT22;38322;53.108;6.308;2022-09-09T15:51:37;18.50;99.90
52397;DHT22;38322;53.108;6.308;2022-09-09T15:54:04;18.50;99.90
52397;DHT22;38322;53.108;6.308;2022-09-09T15:56:31;18.40;99.90
52397;DHT22;38322;53.108;6.308;2022-09-09T15:58:59;18.40;99.90
52397;DHT22;38322;53.108;6.308;2022-09-09T16:01:26;18.30;99.90
52397;DHT22;38322;53.108;6.308;2022-09-09T16:03:53;18.40;99.90
52397;DHT22;38322;53.108;6.308;2022-09-09T16:06:21;18.40;99.90
52397;DHT22;38322;53.108;6.308;2022-09-09T16:08:49;18.40;99.90
52397;DHT22;38322;53.108;6.308;2022-09-09T16:11:19;18.40;99.90
52397;DHT22;38322;53.108;6.308;2022-09-09T16:13:47;18.40;99.90
52397;DHT22;38322;53.108;6.308;2022-09-09T16:16:15;18.40;99.90
52397;DHT22;38322;53.108;6.308;2022-09-09T16:18:43;18.40;99.90
52397;DHT22;38322;53.108;6.308;2022-09-09T16:21:16;18.40;99.90
52397;DHT22;38322;53.108;6.308;2022-09-09T16:23:42;18.30;99.90
52397;DHT22;38322;53.108;6.308;2022-09-09T16:26:12;18.30;99.90
52397;DHT22;38322;53.108;6.308;2022-09-09T16:28:38;18.30;99.90
52397;DHT22;38322;53.108;6.308;2022-09-09T16:31:10;18.30;99.90
52397;DHT22;38322;53.108;6.308;2022-09-09T16:33:37;18.30;99.90
52397;DHT22;38322;53.108;6.308;2022-09-09T16:36:07;18.20;99.90
52397;DHT22;38322;53.108;6.308;2022-09-09T16:38:34;18.20;99.90
52397;DHT22;38322;53.108;6.308;2022-09-09T16:41:02;18.20;99.90
52397;DHT22;38322;53.108;6.308;2022-09-09T16:43:28;18.20;99.90
52397;DHT22;38322;53.108;6.308;2022-09-09T16:45:54;18.10;99.90
52397;DHT22;38322;53.108;6.308;2022-09-09T16:48:20;18.10;99.90
52397;DHT22;38322;53.108;6.308;2022-09-09T16:50:45;18.10;99.90
52397;DHT22;38322;53.108;6.308;2022-09-09T16:53:12;18.00;99.90
52397;DHT22;38322;53.108;6.308;2022-09-09T16:55:41;18.00;99.90
52397;DHT22;38322;53.108;6.308;2022-09-09T16:58:10;18.00;99.90
52397;DHT22;38322;53.108;6.308;2022-09-09T17:00:36;18.00;99.90
52397;DHT22;38322;53.108;6.308;2022-09-09T17:03:02;18.00;99.90
52397;DHT22;38322;53.108;6.308;2022-09-09T17:05:28;18.00;99.90
52397;DHT22;38322;53.108;6.308;2022-09-09T17:07:55;18.00;99.90
52397;DHT22;38322;53.108;6.308;2022-09-09T17:10:23;18.00;99.90
52397;DHT22;38322;53.108;6.308;2022-09-09T17:12:50;18.00;99.90
52397;DHT22;38322;53.108;6.308;2022-09-09T17:15:16;18.00;99.90
52397;DHT22;38322;53.108;6.308;2022-09-09T17:17:44;17.90;99.90
52397;DHT22;38322;53.108;6.308;2022-09-09T17:20:11;18.00;99.90
52397;DHT22;38322;53.108;6.308;2022-09-09T17:22:37;18.00;99.90
52397;DHT22;38322;53.108;6.308;2022-09-09T17:25:03;17.90;99.90
52397;DHT22;38322;53.108;6.308;2022-09-09T17:27:29;17.80;99.90
52397;DHT22;38322;53.108;6.308;2022-09-09T17:29:57;17.80;99.90
52397;DHT22;38322;53.108;6.308;2022-09-09T17:32:24;17.80;99.90
52397;DHT22;38322;53.108;6.308;2022-09-09T17:34:50;17.70;99.90
52397;DHT22;38322;53.108;6.308;2022-09-09T17:37:16;17.70;99.90
52397;DHT22;38322;53.108;6.308;2022-09-09T17:39:43;17.60;99.90
52397;DHT22;38322;53.108;6.308;2022-09-09T17:42:09;17.60;99.90
52397;DHT22;38322;53.108;6.308;2022-09-09T17:44:35;17.60;99.90
52397;DHT22;38322;53.108;6.308;2022-09-09T17:47:01;17.50;99.90
52397;DHT22;38322;53.108;6.308;2022-09-09T17:49:29;17.40;99.90
52397;DHT22;38322;53.108;6.308;2022-09-09T17:51:55;17.40;99.90
52397;DHT22;38322;53.108;6.308;2022-09-09T17:54:22;17.40;99.90
52397;DHT22;38322;53.108;6.308;2022-09-09T17:56:48;17.40;99.90
52397;DHT22;38322;53.108;6.308;2022-09-09T17:59:16;17.40;99.90
52397;DHT22;38322;53.108;6.308;2022-09-09T18:01:45;17.40;99.90
52397;DHT22;38322;53.108;6.308;2022-09-09T18:04:13;17.30;99.90
52397;DHT22;38322;53.108;6.308;2022-09-09T18:06:42;17.30;99.90
52397;DHT22;38322;53.108;6.308;2022-09-09T18:09:11;17.30;99.90
52397;DHT22;38322;53.108;6.308;2022-09-09T18:11:40;17.30;99.90
52397;DHT22;38322;53.108;6.308;2022-09-09T18:14:11;17.20;99.90
52397;DHT22;38322;53.108;6.308;2022-09-09T18:16:38;17.20;99.90
52397;DHT22;38322;53.108;6.308;2022-09-09T18:19:07;17.20;99.90
52397;DHT22;38322;53.108;6.308;2022-09-09T18:21:34;17.20;99.90
52397;DHT22;38322;53.108;6.308;2022-09-09T18:24:03;17.20;99.90
52397;DHT22;38322;53.108;6.308;2022-09-09T18:26:30;17.10;99.90
52397;DHT22;38322;53.108;6.308;2022-09-09T18:29:00;17.10;99.90
52397;DHT22;38322;53.108;6.308;2022-09-09T18:31:27;17.00;99.90
52397;DHT22;38322;53.108;6.308;2022-09-09T18:33:55;17.00;99.90
52397;DHT22;38322;53.108;6.308;2022-09-09T18:36:22;17.00;99.90
52397;DHT22;38322;53.108;6.308;2022-09-09T18:38:49;17.00;99.90
52397;DHT22;38322;53.108;6.308;2022-09-09T18:41:18;16.90;99.90
52397;DHT22;38322;53.108;6.308;2022-09-09T18:43:46;16.90;99.90
52397;DHT22;38322;53.108;6.308;2022-09-09T18:46:13;16.90;99.90
52397;DHT22;38322;53.108;6.308;2022-09-09T18:48:41;16.90;99.90
52397;DHT22;38322;53.108;6.308;2022-09-09T18:51:09;16.90;99.90
52397;DHT22;38322;53.108;6.308;2022-09-09T18:53:36;16.90;99.90
52397;DHT22;38322;53.108;6.308;2022-09-09T18:56:06;16.80;99.90
52397;DHT22;38322;53.108;6.308;2022-09-09T18:58:33;16.80;99.90
52397;DHT22;38322;53.108;6.308;2022-09-09T19:01:00;16.80;99.90
52397;DHT22;38322;53.108;6.308;2022-09-09T19:03:28;16.80;99.90
52397;DHT22;38322;53.108;6.308;2022-09-09T19:06:01;16.80;99.90
52397;DHT22;38322;53.108;6.308;2022-09-09T19:08:27;16.80;99.90
52397;DHT22;38322;53.108;6.308;2022-09-09T19:10:53;16.80;99.90
52397;DHT22;38322;53.108;6.308;2022-09-09T19:13:19;16.80;99.90
52397;DHT22;38322;53.108;6.308;2022-09-09T19:15:45;16.80;99.90
52397;DHT22;38322;53.108;6.308;2022-09-09T19:18:11;16.80;99.90
52397;DHT22;38322;53.108;6.308;2022-09-09T19:20:37;16.70;99.90
52397;DHT22;38322;53.108;6.308;2022-09-09T19:23:04;16.70;99.90
52397;DHT22;38322;53.108;6.308;2022-09-09T19:25:34;16.80;99.90
52397;DHT22;38322;53.108;6.308;2022-09-09T19:28:02;16.80;99.90
52397;DHT22;38322;53.108;6.308;2022-09-09T19:30:28;16.70;99.90
52397;DHT22;38322;53.108;6.308;2022-09-09T19:32:54;16.70;99.90
52397;DHT22;38322;53.108;6.308;2022-09-09T19:35:21;16.70;99.90
52397;DHT22;38322;53.108;6.308;2022-09-09T19:37:47;16.70;99.90
52397;DHT22;38322;53.108;6.308;2022-09-09T19:40:13;16.70;99.90
52397;DHT22;38322;53.108;6.308;2022-09-09T19:42:39;16.70;99.90
52397;DHT22;38322;53.108;6.308;2022-09-09T19:45:06;16.70;99.90
52397;DHT22;38322;53.108;6.308;2022-09-09T19:47:34;16.70;99.90
52397;DHT22;38322;53.108;6.308;2022-09-09T19:49:59;16.60;99.90
52397;DHT22;38322;53.108;6.308;2022-09-09T19:52:25;16.60;99.90
52397;DHT22;38322;53.108;6.308;2022-09-09T19:54:51;16.60;99.90
52397;DHT22;38322;53.108;6.308;2022-09-09T19:57:17;16.60;99.90
52397;DHT22;38322;53.108;6.308;2022-09-09T19:59:44;16.60;99.90
